createdAt,value
2023-02-19T00:01:24.837Z,11.30
2023-02-19T00:03:58.196Z,11.30
2023-02-19T00:06:27.499Z,11.40
2023-02-19T00:08:54.548Z,11.30
2023-02-19T00:11:23.868Z,11.30
2023-02-19T00:13:53.227Z,11.30
2023-02-19T00:16:23.194Z,11.40
2023-02-19T00:18:50.307Z,11.30
2023-02-19T00:21:17.599Z,11.30
2023-02-19T00:23:48.133Z,11.20
2023-02-19T00:26:18.611Z,11.30
2023-02-19T00:28:46.885Z,11.30
2023-02-19T00:31:19.471Z,11.20
2023-02-19T00:33:47.502Z,11.20
2023-02-19T00:36:15.160Z,11.20
2023-02-19T00:38:43.506Z,11.20
2023-02-19T00:41:20.681Z,11.20
2023-02-19T00:43:54.036Z,11.20
2023-02-19T00:46:26.968Z,11.20
2023-02-19T00:48:54.300Z,11.10
2023-02-19T00:51:23.201Z,11.20
2023-02-19T00:53:50.045Z,11.20
2023-02-19T00:56:17.380Z,11.20
2023-02-19T00:58:44.220Z,11.10
2023-02-19T01:01:11.897Z,11.20
2023-02-19T01:03:39.672Z,11.20
2023-02-19T01:06:07.649Z,11.10
2023-02-19T01:08:34.754Z,11.10
2023-02-19T01:11:02.561Z,11.10
2023-02-19T01:13:29.400Z,11.20
2023-02-19T01:16:12.656Z,11.10
2023-02-19T01:18:39.952Z,11.10
2023-02-19T01:21:13.749Z,11.10
2023-02-19T01:23:40.606Z,11.10
2023-02-19T01:26:09.070Z,11.10
2023-02-19T01:28:35.989Z,11.10
2023-02-19T01:31:08.268Z,11.10
2023-02-19T01:33:35.317Z,11.10
2023-02-19T01:36:06.107Z,11.10
2023-02-19T01:38:33.191Z,11.10
2023-02-19T01:41:05.366Z,11.10
2023-02-19T01:43:33.910Z,11.10
2023-02-19T01:46:01.210Z,11.10
2023-02-19T01:48:33.469Z,11.10
2023-02-19T01:51:09.744Z,11.10
2023-02-19T01:53:47.345Z,11.10
2023-02-19T01:56:15.994Z,11.10
2023-02-19T01:58:43.171Z,11.10
2023-02-19T02:01:10.338Z,11.10
2023-02-19T02:03:38.875Z,11.10
2023-02-19T02:06:19.048Z,11.00
2023-02-19T02:09:04.436Z,11.00
2023-02-19T02:11:31.227Z,11.10
2023-02-19T02:13:59.032Z,11.10
2023-02-19T02:16:33.032Z,11.10
2023-02-19T02:19:27.109Z,11.10
2023-02-19T02:21:59.528Z,11.10
2023-02-19T02:25:00.470Z,11.00
2023-02-19T02:27:52.537Z,10.90
2023-02-19T02:30:34.528Z,10.80
2023-02-19T02:33:39.651Z,10.90
2023-02-19T02:36:24.657Z,10.90
2023-02-19T02:38:54.105Z,10.80
2023-02-19T02:41:21.246Z,10.80
2023-02-19T02:43:47.895Z,10.80
2023-02-19T02:46:20.248Z,10.80
2023-02-19T02:48:55.452Z,10.80
2023-02-19T02:51:36.308Z,10.70
2023-02-19T02:54:47.352Z,10.70
2023-02-19T02:57:15.279Z,10.80
2023-02-19T02:59:43.125Z,10.80
2023-02-19T03:02:24.833Z,10.80
2023-02-19T03:05:25.925Z,10.80
2023-02-19T03:08:01.197Z,10.80
2023-02-19T03:10:47.391Z,10.80
2023-02-19T03:13:54.723Z,10.70
2023-02-19T03:16:47.310Z,10.70
2023-02-19T03:19:19.062Z,10.70
2023-02-19T03:21:59.911Z,10.70
2023-02-19T03:24:53.869Z,10.70
2023-02-19T03:27:21.944Z,10.70
2023-02-19T03:29:51.907Z,10.70
2023-02-19T03:32:27.565Z,10.70
2023-02-19T03:35:13.470Z,10.70
2023-02-19T03:38:03.810Z,10.70
2023-02-19T03:40:34.748Z,10.70
2023-02-19T03:43:11.962Z,10.70
2023-02-19T03:45:50.340Z,10.70
2023-02-19T03:48:35.984Z,10.70
2023-02-19T03:51:13.977Z,10.80
2023-02-19T03:53:49.568Z,10.80
2023-02-19T03:56:31.297Z,10.80
2023-02-19T03:59:05.610Z,10.80
2023-02-19T04:01:53.856Z,10.80
2023-02-19T04:04:29.283Z,10.70
2023-02-19T04:06:57.567Z,10.80
2023-02-19T04:09:28.823Z,10.70
2023-02-19T04:11:56.046Z,10.70
2023-02-19T04:14:28.957Z,10.70
2023-02-19T04:17:01.992Z,10.70
2023-02-19T04:19:32.972Z,10.70
2023-02-19T04:22:01.525Z,10.70
2023-02-19T04:24:34.700Z,10.70
2023-02-19T04:27:02.557Z,10.70
2023-02-19T04:29:29.230Z,10.70
2023-02-19T04:31:55.988Z,10.70
2023-02-19T04:34:22.785Z,10.70
2023-02-19T04:36:49.607Z,10.70
2023-02-19T04:39:16.325Z,10.70
2023-02-19T04:41:42.954Z,10.70
2023-02-19T04:44:09.753Z,10.70
2023-02-19T04:46:36.413Z,10.60
2023-02-19T04:49:03.791Z,10.60
2023-02-19T04:51:30.458Z,10.50
2023-02-19T04:53:57.108Z,10.50
2023-02-19T04:56:23.835Z,10.40
2023-02-19T04:58:50.515Z,10.40
2023-02-19T05:01:17.694Z,10.40
2023-02-19T05:03:44.548Z,10.40
2023-02-19T05:06:13.352Z,10.40
2023-02-19T05:08:40.626Z,10.40
2023-02-19T05:11:10.778Z,10.30
2023-02-19T05:13:38.252Z,10.30
2023-02-19T05:16:07.946Z,10.40
2023-02-19T05:18:34.926Z,10.40
2023-02-19T05:21:02.249Z,10.40
2023-02-19T05:23:29.089Z,10.30
2023-02-19T05:25:55.923Z,10.30
2023-02-19T05:28:28.631Z,10.30
2023-02-19T05:30:56.849Z,10.30
2023-02-19T05:33:25.644Z,10.30
2023-02-19T05:35:55.891Z,10.30
2023-02-19T05:38:23.799Z,10.30
2023-02-19T05:40:51.229Z,10.30
2023-02-19T05:43:18.252Z,10.30
2023-02-19T05:45:44.949Z,10.30
2023-02-19T05:48:12.850Z,10.30
2023-02-19T05:50:39.997Z,10.30
2023-02-19T05:53:06.820Z,10.20
2023-02-19T05:55:36.586Z,10.20
2023-02-19T05:58:03.955Z,10.10
2023-02-19T06:00:32.593Z,10.10
2023-02-19T06:02:59.417Z,10.10
2023-02-19T06:05:26.137Z,10.10
2023-02-19T06:07:52.848Z,10.10
2023-02-19T06:10:19.649Z,10.10
2023-02-19T06:12:46.374Z,10.10
2023-02-19T06:15:13.076Z,10.00
2023-02-19T06:17:39.804Z,10.10
2023-02-19T06:20:07.616Z,10.10
2023-02-19T06:22:34.320Z,10.10
2023-02-19T06:25:01.063Z,10.10
2023-02-19T06:27:28.165Z,10.10
2023-02-19T06:29:54.895Z,10.10
2023-02-19T06:32:21.816Z,10.10
2023-02-19T06:34:48.672Z,10.00
2023-02-19T06:37:15.316Z,10.00
2023-02-19T06:39:41.951Z,10.00
2023-02-19T06:42:08.719Z,10.10
2023-02-19T06:44:35.448Z,10.10
2023-02-19T06:47:02.122Z,10.00
2023-02-19T06:49:28.944Z,10.00
2023-02-19T06:51:55.805Z,10.00
2023-02-19T06:54:22.590Z,10.00
2023-02-19T06:56:49.313Z,10.00
2023-02-19T06:59:16.937Z,10.00
2023-02-19T07:01:44.848Z,10.00
2023-02-19T07:04:11.600Z,10.00
2023-02-19T07:06:38.792Z,10.00
2023-02-19T07:09:07.885Z,10.00
2023-02-19T07:11:36.010Z,10.00
2023-02-19T07:14:05.081Z,10.00
2023-02-19T07:16:31.977Z,10.00
2023-02-19T07:18:59.910Z,10.00
2023-02-19T07:21:27.528Z,10.00
2023-02-19T07:23:54.328Z,10.00
2023-02-19T07:26:21.811Z,10.00
2023-02-19T07:28:49.795Z,9.90
2023-02-19T07:31:18.428Z,9.90
2023-02-19T07:33:46.400Z,9.90
2023-02-19T07:36:14.658Z,10.00
2023-02-19T07:38:41.334Z,10.00
2023-02-19T07:41:08.740Z,10.00
2023-02-19T07:43:37.515Z,10.00
2023-02-19T07:46:06.007Z,10.00
2023-02-19T07:48:34.221Z,10.00
2023-02-19T07:51:01.431Z,10.00
2023-02-19T07:53:28.634Z,10.00
2023-02-19T07:56:06.250Z,10.00
2023-02-19T07:58:34.399Z,10.00
2023-02-19T08:01:40.941Z,10.00
2023-02-19T08:04:08.097Z,10.00
2023-02-19T08:06:34.817Z,10.00
2023-02-19T08:09:01.457Z,10.00
2023-02-19T08:11:46.529Z,9.90
2023-02-19T08:14:13.257Z,10.00
2023-02-19T08:16:43.254Z,10.00
2023-02-19T08:19:10.294Z,10.00
2023-02-19T08:21:36.969Z,10.00
2023-02-19T08:24:03.898Z,10.00
2023-02-19T08:26:30.812Z,10.00
2023-02-19T08:28:58.921Z,10.00
2023-02-19T08:31:25.817Z,10.00
2023-02-19T08:33:52.700Z,10.00
2023-02-19T08:36:19.408Z,10.00
2023-02-19T08:38:46.088Z,10.00
2023-02-19T08:41:14.140Z,9.90
2023-02-19T08:43:41.922Z,10.00
2023-02-19T08:46:10.175Z,10.00
2023-02-19T08:48:38.275Z,10.00
2023-02-19T08:51:08.529Z,10.00
2023-02-19T08:53:37.313Z,10.10
2023-02-19T08:56:12.768Z,10.10
2023-02-19T08:58:40.518Z,10.10
2023-02-19T09:01:13.035Z,10.20
2023-02-19T09:03:40.469Z,10.20
2023-02-19T09:06:07.841Z,10.20
2023-02-19T09:08:34.675Z,10.20
2023-02-19T09:11:03.469Z,10.20
2023-02-19T09:13:30.414Z,10.30
2023-02-19T09:15:57.362Z,10.30
2023-02-19T09:18:25.203Z,10.40
2023-02-19T09:20:51.922Z,10.40
2023-02-19T09:23:18.650Z,10.50
2023-02-19T09:25:45.419Z,10.60
2023-02-19T09:28:12.192Z,10.60
2023-02-19T09:30:38.988Z,10.60
2023-02-19T09:33:06.080Z,10.70
2023-02-19T09:35:32.718Z,10.70
2023-02-19T09:38:01.918Z,10.70
2023-02-19T09:40:30.336Z,10.80
2023-02-19T09:42:57.438Z,10.80
2023-02-19T09:45:26.261Z,10.80
2023-02-19T09:47:55.682Z,10.80
2023-02-19T09:50:37.268Z,10.90
2023-02-19T09:53:12.918Z,10.90
2023-02-19T09:55:42.498Z,11.00
2023-02-19T09:58:18.482Z,11.00
2023-02-19T10:00:49.450Z,11.00
2023-02-19T10:03:22.034Z,11.00
2023-02-19T10:05:49.334Z,11.00
2023-02-19T10:08:20.615Z,11.10
2023-02-19T10:10:47.311Z,11.10
2023-02-19T10:13:21.711Z,11.20
2023-02-19T10:15:54.657Z,11.10
2023-02-19T10:18:24.982Z,11.10
2023-02-19T10:20:53.249Z,11.10
2023-02-19T10:23:20.231Z,11.20
2023-02-19T10:25:50.626Z,11.20
2023-02-19T10:28:20.315Z,11.20
2023-02-19T10:30:54.199Z,11.10
2023-02-19T10:33:21.134Z,11.10
2023-02-19T10:35:54.808Z,11.10
2023-02-19T10:38:34.102Z,11.10
2023-02-19T10:41:17.497Z,11.10
2023-02-19T10:44:07.780Z,11.20
2023-02-19T10:46:45.671Z,11.20
2023-02-19T10:49:28.082Z,11.20
2023-02-19T10:51:56.369Z,11.20
2023-02-19T10:54:31.233Z,11.20
2023-02-19T10:57:18.930Z,11.20
2023-02-19T10:59:57.724Z,11.20
2023-02-19T11:02:25.819Z,11.20
2023-02-19T11:05:07.225Z,11.20
2023-02-19T11:07:34.457Z,11.30
2023-02-19T11:10:01.658Z,11.30
2023-02-19T11:12:30.859Z,11.30
2023-02-19T11:15:22.396Z,11.30
2023-02-19T11:18:14.673Z,11.40
2023-02-19T11:21:02.789Z,11.40
2023-02-19T11:23:38.396Z,11.50
2023-02-19T11:26:07.194Z,11.50
2023-02-19T11:28:38.979Z,11.50
2023-02-19T11:31:32.038Z,11.60
2023-02-19T11:33:59.946Z,11.60
2023-02-19T11:36:30.474Z,11.70
2023-02-19T11:39:02.530Z,11.70
2023-02-19T11:41:38.035Z,11.70
2023-02-19T11:44:32.067Z,11.60
2023-02-19T11:47:01.904Z,11.60
2023-02-19T11:49:57.866Z,11.60
2023-02-19T11:52:42.072Z,11.60
2023-02-19T11:55:32.065Z,11.60
2023-02-19T11:58:40.636Z,11.60
2023-02-19T12:01:26.040Z,11.50
2023-02-19T12:04:08.706Z,11.50
2023-02-19T12:06:50.380Z,11.40
2023-02-19T12:09:35.238Z,11.40
2023-02-19T12:12:22.516Z,11.40
2023-02-19T12:15:15.488Z,11.40
2023-02-19T12:18:16.649Z,11.40
2023-02-19T12:21:14.102Z,11.50
2023-02-19T12:23:53.699Z,11.50
2023-02-19T12:26:27.414Z,11.60
2023-02-19T12:29:22.435Z,11.70
2023-02-19T12:32:07.657Z,11.70
2023-02-19T12:35:16.853Z,11.80
2023-02-19T12:38:16.307Z,11.70
2023-02-19T12:41:01.248Z,11.70
2023-02-19T12:43:31.842Z,11.80
2023-02-19T12:46:06.850Z,11.90
2023-02-19T12:48:58.893Z,11.90
2023-02-19T12:51:34.050Z,11.90
2023-02-19T12:54:16.864Z,12.00
2023-02-19T12:57:03.908Z,12.10
2023-02-19T12:59:33.710Z,12.20
2023-02-19T13:02:15.171Z,12.10
2023-02-19T13:05:03.592Z,12.20
2023-02-19T13:07:55.488Z,12.20
2023-02-19T13:10:43.474Z,12.20
2023-02-19T13:13:38.504Z,12.20
2023-02-19T13:16:19.062Z,12.20
2023-02-19T13:18:52.421Z,12.20
2023-02-19T13:21:41.061Z,12.20
2023-02-19T13:24:14.209Z,12.20
2023-02-19T13:27:12.228Z,12.20
2023-02-19T13:29:56.189Z,12.30
2023-02-19T13:32:45.675Z,12.30
2023-02-19T13:35:37.437Z,12.30
2023-02-19T13:40:35.377Z,12.40
2023-02-19T13:43:07.813Z,12.40
2023-02-19T13:45:38.286Z,12.40
2023-02-19T13:48:24.022Z,12.40
2023-02-19T13:51:11.258Z,12.40
2023-02-19T13:53:41.525Z,12.40
2023-02-19T13:56:40.633Z,12.40
2023-02-19T13:59:37.122Z,12.40
2023-02-19T14:02:03.771Z,12.30
2023-02-19T14:05:00.059Z,12.30
2023-02-19T14:07:26.701Z,12.30
2023-02-19T14:09:54.335Z,12.20
2023-02-19T14:12:30.329Z,12.20
2023-02-19T14:14:57.638Z,12.10
2023-02-19T14:17:41.807Z,12.00
2023-02-19T14:20:17.533Z,12.00
2023-02-19T14:22:52.886Z,11.90
2023-02-19T14:25:58.246Z,11.90
2023-02-19T14:28:33.505Z,11.90
2023-02-19T14:31:08.715Z,11.90
2023-02-19T14:33:43.616Z,11.80
2023-02-19T14:36:27.180Z,11.80
2023-02-19T14:38:57.924Z,11.80
2023-02-19T14:41:25.878Z,11.80
2023-02-19T14:43:56.360Z,11.80
2023-02-19T14:46:28.340Z,11.70
2023-02-19T14:48:57.994Z,11.70
2023-02-19T14:51:33.527Z,11.70
2023-02-19T14:54:09.322Z,11.70
2023-02-19T14:56:36.864Z,11.70
2023-02-19T14:59:22.299Z,11.60
2023-02-19T15:02:04.025Z,11.60
2023-02-19T15:04:36.237Z,11.60
2023-02-19T15:07:07.560Z,11.60
2023-02-19T15:09:39.970Z,11.60
2023-02-19T15:12:07.258Z,11.60
2023-02-19T15:14:34.628Z,11.50
2023-02-19T15:17:05.432Z,11.50
2023-02-19T15:19:39.584Z,11.50
2023-02-19T15:22:06.355Z,11.50
2023-02-19T15:24:33.056Z,11.50
2023-02-19T15:26:59.821Z,11.50
2023-02-19T15:29:27.766Z,11.50
2023-02-19T15:31:58.046Z,11.50
2023-02-19T15:34:27.530Z,11.50
2023-02-19T15:37:04.584Z,11.50
2023-02-19T15:39:37.821Z,11.50
2023-02-19T15:42:06.614Z,11.50
2023-02-19T15:44:37.443Z,11.40
2023-02-19T15:47:15.448Z,11.40
2023-02-19T15:49:51.407Z,11.40
2023-02-19T15:52:45.661Z,11.40
2023-02-19T15:55:28.931Z,11.40
2023-02-19T15:58:15.298Z,11.40
2023-02-19T16:00:48.455Z,11.40
2023-02-19T16:03:23.528Z,11.40
2023-02-19T16:06:11.243Z,11.30
2023-02-19T16:08:39.672Z,11.30
2023-02-19T16:11:22.785Z,11.30
2023-02-19T16:13:53.529Z,11.30
2023-02-19T16:16:29.814Z,11.30
2023-02-19T16:18:57.221Z,11.30
2023-02-19T16:21:26.928Z,11.20
2023-02-19T16:24:15.502Z,11.20
2023-02-19T16:26:43.689Z,11.20
2023-02-19T16:29:26.675Z,11.20
2023-02-19T16:31:57.869Z,11.20
2023-02-19T16:34:34.402Z,11.20
2023-02-19T16:37:02.976Z,11.20
2023-02-19T16:39:30.379Z,11.20
2023-02-19T16:42:00.142Z,11.10
2023-02-19T16:44:32.960Z,11.10
2023-02-19T16:47:20.182Z,11.10
2023-02-19T16:49:46.794Z,11.10
2023-02-19T16:52:15.798Z,11.10
2023-02-19T16:54:43.281Z,11.10
2023-02-19T16:57:10.012Z,11.00
2023-02-19T16:59:37.000Z,11.00
2023-02-19T17:02:06.152Z,11.10
2023-02-19T17:04:32.907Z,11.00
2023-02-19T17:06:59.650Z,11.00
2023-02-19T17:09:26.360Z,11.00
2023-02-19T17:11:53.042Z,10.90
2023-02-19T17:14:19.681Z,10.90
2023-02-19T17:16:47.030Z,10.80
2023-02-19T17:19:18.392Z,10.90
2023-02-19T17:21:46.674Z,10.80
2023-02-19T17:24:14.061Z,10.80
2023-02-19T17:26:40.925Z,10.80
2023-02-19T17:29:13.772Z,10.80
2023-02-19T17:31:40.699Z,10.80
2023-02-19T17:34:07.546Z,10.80
2023-02-19T17:36:34.457Z,10.80
2023-02-19T17:39:03.232Z,10.90
2023-02-19T17:41:29.984Z,10.80
2023-02-19T17:43:56.675Z,10.80
2023-02-19T17:46:25.842Z,10.80
2023-02-19T17:48:53.863Z,10.70
2023-02-19T17:51:21.047Z,10.80
2023-02-19T17:53:47.868Z,10.70
2023-02-19T17:56:23.325Z,10.70
2023-02-19T17:58:49.996Z,10.70
2023-02-19T18:01:16.959Z,10.70
2023-02-19T18:03:44.060Z,10.60
2023-02-19T18:06:11.327Z,10.60
2023-02-19T18:08:38.280Z,10.70
2023-02-19T18:11:07.193Z,10.70
2023-02-19T18:13:33.907Z,10.70
2023-02-19T18:16:00.568Z,10.70
2023-02-19T18:18:27.338Z,10.70
2023-02-19T18:20:53.985Z,10.70
2023-02-19T18:23:23.400Z,10.60
2023-02-19T18:25:50.317Z,10.60
2023-02-19T18:28:17.055Z,10.60
2023-02-19T18:30:43.821Z,10.60
2023-02-19T18:33:13.399Z,10.60
2023-02-19T18:35:40.162Z,10.50
2023-02-19T18:38:06.893Z,10.50
2023-02-19T18:40:33.553Z,10.50
2023-02-19T18:43:00.289Z,10.50
2023-02-19T18:45:27.607Z,10.50
2023-02-19T18:47:54.285Z,10.50
2023-02-19T18:50:20.896Z,10.50
2023-02-19T18:52:47.581Z,10.50
2023-02-19T18:55:14.315Z,10.50
2023-02-19T18:57:41.125Z,10.40
2023-02-19T19:00:08.716Z,10.40
2023-02-19T19:02:48.398Z,10.40
2023-02-19T19:05:23.489Z,10.40
2023-02-19T19:07:55.269Z,10.40
2023-02-19T19:10:22.808Z,10.40
2023-02-19T19:12:49.840Z,10.40
2023-02-19T19:15:18.437Z,10.40
2023-02-19T19:17:46.176Z,10.40
2023-02-19T19:20:13.356Z,10.40
2023-02-19T19:22:40.298Z,10.40
2023-02-19T19:25:08.606Z,10.40
2023-02-19T19:27:35.299Z,10.40
2023-02-19T19:30:02.603Z,10.40
2023-02-19T19:32:29.304Z,10.30
2023-02-19T19:34:56.032Z,10.30
2023-02-19T19:37:22.668Z,10.30
2023-02-19T19:39:49.367Z,10.20
2023-02-19T19:42:16.039Z,10.20
2023-02-19T19:44:45.525Z,10.30
2023-02-19T19:47:12.268Z,10.40
2023-02-19T19:49:40.807Z,10.30
2023-02-19T19:52:09.385Z,10.40
2023-02-19T19:54:36.032Z,10.30
2023-02-19T19:57:02.707Z,10.30
2023-02-19T19:59:29.521Z,10.30
2023-02-19T20:01:57.892Z,10.30
2023-02-19T20:04:25.893Z,10.40
2023-02-19T20:06:53.194Z,10.30
2023-02-19T20:09:20.536Z,10.40
2023-02-19T20:11:49.683Z,10.40
2023-02-19T20:14:18.024Z,10.40
2023-02-19T20:16:44.932Z,10.40
2023-02-19T20:19:12.128Z,10.30
2023-02-19T20:21:38.752Z,10.30
2023-02-19T20:24:05.971Z,10.30
2023-02-19T20:26:32.715Z,10.30
2023-02-19T20:28:59.455Z,10.30
2023-02-19T20:31:26.900Z,10.30
2023-02-19T20:33:53.702Z,10.30
2023-02-19T20:36:20.701Z,10.30
2023-02-19T20:38:49.462Z,10.30
2023-02-19T20:41:16.201Z,10.20
2023-02-19T20:43:42.977Z,10.20
2023-02-19T20:46:10.034Z,10.20
2023-02-19T20:48:37.059Z,10.30
2023-02-19T20:51:04.174Z,10.30
2023-02-19T20:53:31.906Z,10.30
2023-02-19T20:55:58.618Z,10.30
2023-02-19T20:58:26.061Z,10.30
2023-02-19T21:00:55.803Z,10.30
2023-02-19T21:03:22.524Z,10.30
2023-02-19T21:05:49.435Z,10.30
2023-02-19T21:08:17.363Z,10.30
2023-02-19T21:10:45.941Z,10.20
2023-02-19T21:13:13.441Z,10.30
2023-02-19T21:15:40.340Z,10.20
2023-02-19T21:18:07.152Z,10.20
2023-02-19T21:20:33.905Z,10.20
2023-02-19T21:23:01.187Z,10.20
2023-02-19T21:25:28.225Z,10.20
2023-02-19T21:27:54.928Z,10.20
2023-02-19T21:30:21.709Z,10.20
2023-02-19T21:32:48.456Z,10.20
2023-02-19T21:35:15.204Z,10.10
2023-02-19T21:37:43.354Z,10.10
2023-02-19T21:40:12.129Z,10.10
2023-02-19T21:42:38.793Z,10.10
2023-02-19T21:45:05.923Z,10.10
2023-02-19T21:47:32.680Z,10.10
2023-02-19T21:49:59.429Z,10.10
2023-02-19T21:52:26.979Z,10.10
2023-02-19T21:54:53.624Z,10.00
2023-02-19T21:57:20.339Z,10.00
2023-02-19T21:59:46.992Z,9.90
2023-02-19T22:02:13.665Z,9.90
2023-02-19T22:04:41.211Z,9.90
2023-02-19T22:07:07.921Z,9.90
2023-02-19T22:09:34.577Z,9.90
2023-02-19T22:12:01.252Z,9.90
2023-02-19T22:14:27.913Z,9.90
2023-02-19T22:16:54.574Z,9.90
2023-02-19T22:19:21.235Z,9.90
2023-02-19T22:21:48.014Z,9.90
2023-02-19T22:24:17.769Z,9.80
2023-02-19T22:26:45.670Z,9.80
2023-02-19T22:29:14.215Z,9.80
2023-02-19T22:31:41.198Z,9.80
2023-02-19T22:34:07.981Z,9.80
2023-02-19T22:36:37.249Z,9.80
2023-02-19T22:39:06.491Z,9.80
2023-02-19T22:41:33.416Z,9.80
2023-02-19T22:44:00.513Z,9.80
2023-02-19T22:46:29.809Z,9.80
2023-02-19T22:48:57.176Z,9.70
2023-02-19T22:51:24.556Z,9.70
2023-02-19T22:53:56.592Z,9.70
2023-02-19T22:56:25.436Z,9.70
2023-02-19T22:58:53.273Z,9.70
2023-02-19T23:01:20.682Z,9.60
2023-02-19T23:03:53.654Z,9.60
2023-02-19T23:06:26.245Z,9.60
2023-02-19T23:08:54.190Z,9.60
2023-02-19T23:11:26.050Z,9.50
2023-02-19T23:13:53.403Z,9.50
2023-02-19T23:16:20.210Z,9.60
2023-02-19T23:18:46.964Z,9.60
2023-02-19T23:21:14.162Z,9.60
2023-02-19T23:23:42.369Z,9.50
2023-02-19T23:26:09.611Z,9.50
2023-02-19T23:28:36.733Z,9.40
2023-02-19T23:31:03.520Z,9.40
2023-02-19T23:33:30.231Z,9.40
2023-02-19T23:35:56.889Z,9.30
2023-02-19T23:38:23.831Z,9.30
2023-02-19T23:40:50.637Z,9.30
2023-02-19T23:43:17.339Z,9.20
2023-02-19T23:45:44.579Z,9.20
2023-02-19T23:48:11.271Z,9.20
2023-02-19T23:50:37.968Z,9.20
2023-02-19T23:53:04.758Z,9.20
2023-02-19T23:55:31.434Z,9.10
2023-02-19T23:57:58.097Z,9.00
